Terminal Aerodrome Forecast
Issued by NWS Portland, ME

Home | Current Version | Previous Version | Text Only | Print | Product List | Glossary On
Versions: 1 2 3 4 5 6 7 8 9 10 11 12 13 14 15 16 17 18 19 20 21 22 23 24 25 26 27 28 29 30 31
331
FTUS41 KGYX 061039 AAE
TAFCON
TAF AMD
KCON 061039Z 0611/0706 00000KT P6SM SCT040
      TEMPO 0611/0612 4SM BR OVC015
     FM061300 36003KT P6SM OVC250
     FM070300 05002KT P6SM OVC100=

USA.gov is the U.S. government's official web portal to all federal, state and local government web resources and services.